Time;durP1;ratioP1;P1;durP2;ratioP2;P2;SDS_P1;SDS_P2;PMS_P1;PMS_P2;Temp;Humidity;BMP_temperature;BMP_pressure;BME280_temperature;BME280_humidity;BME280_pressure;Samples;Min_cycle;Max_cycle;Signal;HPM_P1;HPM_P2
2022/01/02 00:00:11;;;;;;;6.57;3.60;;;5.30;99.90;;;;;;5139036;27;20161;-68
2022/01/02 00:02:40;;;;;;;8.87;4.00;;;5.30;99.90;;;;;;5141171;27;20140;-67
2022/01/02 00:05:10;;;;;;;6.80;3.57;;;5.30;99.90;;;;;;5140552;27;20176;-66
2022/01/02 00:08:03;;;;;;;6.03;3.37;;;5.30;99.90;;;;;;5139864;27;20149;-67
2022/01/02 00:10:45;;;;;;;5.53;3.50;;;5.20;99.90;;;;;;5139254;27;20165;-66
2022/01/02 00:13:33;;;;;;;4.43;2.80;;;5.20;99.90;;;;;;5158234;27;20156;-66
2022/01/02 00:16:03;;;;;;;5.90;2.93;;;5.20;99.90;;;;;;5158966;27;20113;-67
2022/01/02 00:18:34;;;;;;;4.80;3.03;;;5.20;99.90;;;;;;5140305;27;20164;-67
2022/01/02 00:21:11;;;;;;;4.03;2.57;;;5.20;99.90;;;;;;5140141;27;20157;-67
2022/01/02 00:23:59;;;;;;;4.80;2.83;;;5.20;99.90;;;;;;5141282;27;20147;-67
2022/01/02 00:26:39;;;;;;;5.83;3.03;;;5.30;99.90;;;;;;5139402;27;20201;-67
2022/01/02 00:29:07;;;;;;;5.43;3.40;;;5.30;99.90;;;;;;5157691;27;20446;-67
2022/01/02 00:31:35;;;;;;;6.87;3.50;;;5.20;99.90;;;;;;5139104;27;20150;-67
2022/01/02 00:34:04;;;;;;;5.53;3.00;;;5.20;99.90;;;;;;5140637;27;20143;-67
2022/01/02 00:36:31;;;;;;;4.90;3.20;;;5.20;99.90;;;;;;5139344;27;20161;-67
2022/01/02 00:38:59;;;;;;;5.53;3.27;;;5.10;99.90;;;;;;5140891;27;20152;-66
2022/01/02 00:41:56;;;;;;;6.03;3.70;;;5.00;99.90;;;;;;5139463;27;20144;-67
2022/01/02 00:44:56;;;;;;;4.97;3.30;;;5.00;99.90;;;;;;5138641;27;20151;-67
2022/01/02 00:47:37;;;;;;;5.07;3.20;;;5.00;99.90;;;;;;5138672;27;20151;-67
2022/01/02 00:50:30;;;;;;;5.23;3.17;;;5.00;99.90;;;;;;5155928;27;20180;-67
2022/01/02 00:52:58;;;;;;;6.47;3.10;;;5.00;99.90;;;;;;5074501;28;20343;-67
2022/01/02 00:55:25;;;;;;;6.07;3.33;;;5.00;99.90;;;;;;5075454;28;20140;-67
2022/01/02 00:58:00;;;;;;;6.57;3.20;;;5.00;99.90;;;;;;5073577;28;20142;-67
2022/01/02 01:00:29;;;;;;;7.23;3.47;;;5.00;99.90;;;;;;5074874;28;20361;-67
2022/01/02 01:02:59;;;;;;;9.13;3.67;;;5.10;99.90;;;;;;5072950;28;20162;-67
2022/01/02 01:05:33;;;;;;;6.33;3.40;;;5.10;99.90;;;;;;5075821;28;20223;-67
2022/01/02 01:08:06;;;;;;;7.13;3.50;;;5.10;99.90;;;;;;5089049;28;20663;-67
2022/01/02 01:10:36;;;;;;;5.73;3.30;;;5.10;99.90;;;;;;5089941;28;20368;-67
2022/01/02 01:13:06;;;;;;;7.47;3.30;;;5.10;99.90;;;;;;5074668;28;20134;-67
2022/01/02 01:15:35;;;;;;;5.43;3.47;;;5.10;99.90;;;;;;5089777;28;20519;-67
2022/01/02 01:18:03;;;;;;;6.23;4.07;;;5.10;99.90;;;;;;5074145;28;20378;-68
2022/01/02 01:20:36;;;;;;;5.93;3.63;;;5.10;99.90;;;;;;5074365;28;20168;-67
2022/01/02 01:23:03;;;;;;;6.17;3.40;;;5.10;99.90;;;;;;5075283;28;20505;-67
2022/01/02 01:25:30;;;;;;;5.37;3.27;;;5.10;99.90;;;;;;5074721;28;20185;-67
2022/01/02 01:27:57;;;;;;;7.40;3.83;;;5.00;99.90;;;;;;5074678;28;20452;-68
2022/01/02 01:30:26;;;;;;;6.57;3.40;;;5.10;99.90;;;;;;5135817;27;20174;-67
2022/01/02 01:32:53;;;;;;;7.40;3.73;;;5.00;99.90;;;;;;5159496;27;20162;-67
2022/01/02 01:35:22;;;;;;;5.77;3.50;;;4.90;99.90;;;;;;5157481;27;20380;-67
2022/01/02 01:37:49;;;;;;;8.63;3.70;;;4.90;99.90;;;;;;5157971;27;20181;-67
2022/01/02 01:40:17;;;;;;;6.70;3.77;;;4.90;99.90;;;;;;5158391;27;20179;-67
2022/01/02 01:42:56;;;;;;;6.47;3.40;;;4.90;99.90;;;;;;5159375;27;20144;-67
2022/01/02 01:47:54;;;;;;;6.77;3.60;;;5.00;99.90;;;;;;5157026;27;20176;-68
2022/01/02 01:50:25;;;;;;;6.03;3.40;;;4.90;99.90;;;;;;5157184;27;20160;-67
2022/01/02 01:52:52;;;;;;;6.20;3.47;;;5.00;99.90;;;;;;5159413;27;20120;-67
2022/01/02 01:55:19;;;;;;;6.20;3.30;;;5.00;99.90;;;;;;5159297;27;20359;-67
2022/01/02 01:57:47;;;;;;;7.57;3.90;;;4.90;99.90;;;;;;5159140;27;20527;-67
2022/01/02 02:00:16;;;;;;;6.10;3.40;;;4.80;99.90;;;;;;5140294;27;20152;-67
2022/01/02 02:02:44;;;;;;;6.50;3.20;;;4.80;99.90;;;;;;5160830;27;20116;-67
2022/01/02 02:05:12;;;;;;;5.43;3.30;;;4.70;99.90;;;;;;5140659;27;20170;-67
2022/01/02 02:07:48;;;;;;;6.50;3.30;;;4.70;99.90;;;;;;5157343;27;20140;-67
2022/01/02 02:10:56;;;;;;;6.50;3.87;;;4.70;99.90;;;;;;5159833;27;20140;-67
2022/01/02 02:13:14;;;;;;;7.37;4.00;;;4.70;99.90;;;;;;5139066;27;20157;-67
2022/01/02 02:15:41;;;;;;;6.67;3.43;;;4.70;99.90;;;;;;5140752;27;20159;-67
2022/01/02 02:18:08;;;;;;;7.93;3.47;;;4.70;99.90;;;;;;5159298;27;20139;-67
2022/01/02 02:20:36;;;;;;;6.40;3.63;;;4.70;99.90;;;;;;5141816;27;20161;-67
2022/01/02 02:23:04;;;;;;;5.80;3.50;;;4.60;99.90;;;;;;5159126;27;20381;-67
2022/01/02 02:25:38;;;;;;;6.60;3.70;;;4.70;99.90;;;;;;5159763;27;20385;-67
2022/01/02 02:28:08;;;;;;;7.23;3.80;;;4.60;99.90;;;;;;5140655;27;20144;-67
2022/01/02 02:30:37;;;;;;;7.00;3.90;;;4.60;99.90;;;;;;5159503;27;20361;-67
2022/01/02 02:33:06;;;;;;;7.43;4.03;;;4.70;99.90;;;;;;5139205;27;20168;-68
2022/01/02 02:35:34;;;;;;;7.13;3.50;;;4.70;99.90;;;;;;5139698;27;20179;-67
2022/01/02 02:38:03;;;;;;;6.50;3.53;;;4.70;99.90;;;;;;5159092;27;20376;-67
2022/01/02 02:40:31;;;;;;;7.27;3.73;;;4.70;99.90;;;;;;5160800;27;20159;-67
2022/01/02 02:51:22;;;;;;;7.23;3.43;;;4.60;99.90;;;;;;5142626;27;20144;-67
2022/01/02 02:53:51;;;;;;;7.93;4.03;;;4.60;99.90;;;;;;5140574;27;20144;-67
2022/01/02 02:56:27;;;;;;;8.07;3.63;;;4.60;99.90;;;;;;5141615;27;20263;-67
2022/01/02 02:58:56;;;;;;;6.33;3.77;;;4.60;99.90;;;;;;5140393;27;20147;-67
2022/01/02 03:01:29;;;;;;;7.27;3.70;;;4.60;99.90;;;;;;5139258;27;20148;-67
2022/01/02 03:03:56;;;;;;;6.43;3.60;;;4.70;99.90;;;;;;5158769;27;20505;-67
2022/01/02 03:06:23;;;;;;;6.23;3.50;;;4.70;99.90;;;;;;5140294;27;20187;-67
2022/01/02 03:08:52;;;;;;;6.87;3.30;;;4.70;99.90;;;;;;5141069;27;20144;-67
2022/01/02 03:11:21;;;;;;;7.60;3.63;;;4.70;99.90;;;;;;5141772;27;20141;-67
2022/01/02 03:13:50;;;;;;;5.20;3.60;;;4.70;99.90;;;;;;5139627;27;20428;-67
2022/01/02 03:16:17;;;;;;;5.93;3.50;;;4.80;99.90;;;;;;5139388;27;20175;-67
2022/01/02 03:18:45;;;;;;;6.93;3.83;;;4.80;99.90;;;;;;5142077;27;20176;-67
2022/01/02 03:21:12;;;;;;;7.67;4.17;;;4.80;99.90;;;;;;5157841;27;20455;-67
2022/01/02 03:23:40;;;;;;;5.73;3.37;;;4.90;99.90;;;;;;5156282;27;20170;-67
2022/01/02 03:26:07;;;;;;;6.97;3.77;;;4.90;99.90;;;;;;5139041;27;20203;-67
2022/01/02 03:28:34;;;;;;;7.83;4.33;;;5.00;99.90;;;;;;5139823;27;20155;-67
2022/01/02 03:31:01;;;;;;;7.30;3.80;;;5.00;99.90;;;;;;5140321;27;20141;-67
2022/01/02 03:33:28;;;;;;;8.23;4.00;;;5.00;99.90;;;;;;5159061;27;20109;-66
2022/01/02 03:35:55;;;;;;;8.90;3.90;;;4.90;99.90;;;;;;5159322;27;20183;-67
2022/01/02 03:38:22;;;;;;;8.53;4.30;;;4.80;99.90;;;;;;5141036;27;20151;-67
2022/01/02 03:40:49;;;;;;;6.13;3.90;;;4.80;99.90;;;;;;5139725;27;20155;-68
2022/01/02 03:43:16;;;;;;;6.23;4.20;;;4.80;99.90;;;;;;5157236;27;20148;-67
2022/01/02 03:45:44;;;;;;;7.63;4.13;;;4.70;99.90;;;;;;5156973;27;20151;-67
2022/01/02 03:48:11;;;;;;;9.97;4.50;;;4.70;99.90;;;;;;5139960;27;20144;-67
2022/01/02 03:50:37;;;;;;;9.50;4.03;;;4.70;99.90;;;;;;5156793;27;20171;-67
2022/01/02 03:53:05;;;;;;;9.13;4.27;;;4.70;99.90;;;;;;5156129;27;20168;-67
2022/01/02 03:55:33;;;;;;;9.43;4.47;;;4.70;99.90;;;;;;5156699;27;20159;-67
2022/01/02 03:58:00;;;;;;;9.40;4.50;;;4.80;99.90;;;;;;5158823;27;20159;-67
2022/01/02 04:00:27;;;;;;;7.30;4.23;;;4.80;99.90;;;;;;5139165;27;20498;-67
2022/01/02 04:02:54;;;;;;;7.40;4.40;;;4.80;99.90;;;;;;5140037;27;20144;-67
2022/01/02 04:05:22;;;;;;;10.83;5.10;;;4.80;99.90;;;;;;5142012;27;20140;-67
2022/01/02 04:07:49;;;;;;;10.60;4.47;;;4.80;99.90;;;;;;5140102;27;20204;-67
2022/01/02 04:10:18;;;;;;;8.90;4.50;;;4.70;99.90;;;;;;5139440;27;20266;-66
2022/01/02 04:12:45;;;;;;;8.27;5.03;;;4.70;99.90;;;;;;5157419;27;20152;-67
2022/01/02 04:15:14;;;;;;;8.63;4.57;;;4.70;99.90;;;;;;5157466;27;20198;-67
2022/01/02 04:17:42;;;;;;;8.77;5.27;;;4.60;99.90;;;;;;5156543;27;20151;-67
2022/01/02 04:20:12;;;;;;;7.73;4.53;;;4.60;99.90;;;;;;5156353;27;20515;-67
2022/01/02 04:22:40;;;;;;;8.20;4.93;;;4.60;99.90;;;;;;5140744;27;20164;-67
2022/01/02 04:25:07;;;;;;;8.20;5.03;;;4.60;99.90;;;;;;5158677;27;20164;-67
2022/01/02 04:27:35;;;;;;;12.07;5.00;;;4.50;99.90;;;;;;5139660;27;20144;-67
2022/01/02 04:30:04;;;;;;;8.57;4.83;;;4.60;99.90;;;;;;5139583;27;20128;-67
2022/01/02 04:32:31;;;;;;;8.60;5.00;;;4.50;99.90;;;;;;5139181;27;20491;-67
2022/01/02 04:34:58;;;;;;;8.93;5.27;;;4.60;99.90;;;;;;5160077;27;20359;-67
2022/01/02 04:37:25;;;;;;;11.73;5.00;;;4.60;99.90;;;;;;5158458;27;20353;-67
2022/01/02 04:39:52;;;;;;;8.50;5.07;;;4.60;99.90;;;;;;5139084;27;20495;-66
2022/01/02 04:42:18;;;;;;;8.60;4.90;;;4.60;99.90;;;;;;5138746;27;20132;-67
2022/01/02 04:44:45;;;;;;;10.03;5.17;;;4.60;99.90;;;;;;5157730;27;20198;-67
2022/01/02 04:47:12;;;;;;;9.13;4.97;;;4.60;99.90;;;;;;5157537;27;20148;-67
2022/01/02 04:49:39;;;;;;;8.63;5.37;;;4.60;99.90;;;;;;5141028;27;20185;-67
2022/01/02 04:52:06;;;;;;;10.03;4.97;;;4.60;99.90;;;;;;5156584;27;20156;-67
2022/01/02 04:54:33;;;;;;;9.63;5.17;;;4.60;99.90;;;;;;5158493;27;20135;-67
2022/01/02 04:57:00;;;;;;;10.60;5.20;;;4.50;99.90;;;;;;5159982;27;20131;-67
2022/01/02 04:59:26;;;;;;;11.40;5.50;;;4.50;99.90;;;;;;5142360;27;20515;-67
2022/01/02 05:01:54;;;;;;;9.27;4.90;;;4.50;99.90;;;;;;5161432;27;20112;-67
2022/01/02 05:04:21;;;;;;;9.80;5.40;;;4.40;99.90;;;;;;5141514;27;20144;-67
2022/01/02 05:06:48;;;;;;;11.70;6.20;;;4.40;99.90;;;;;;5140408;27;20163;-66
2022/01/02 05:09:15;;;;;;;8.93;5.53;;;4.40;99.90;;;;;;5161119;27;20128;-67
2022/01/02 05:11:42;;;;;;;10.80;5.70;;;4.40;99.90;;;;;;5158474;27;20189;-67
2022/01/02 05:14:10;;;;;;;11.37;5.97;;;4.40;99.90;;;;;;5141201;27;20159;-67
2022/01/02 05:16:37;;;;;;;11.93;6.10;;;4.40;99.90;;;;;;5140228;27;20158;-67
2022/01/02 05:19:04;;;;;;;9.03;5.77;;;4.50;99.90;;;;;;5141493;27;20152;-67
2022/01/02 05:21:31;;;;;;;10.10;5.97;;;4.50;99.90;;;;;;5157818;27;20148;-67
2022/01/02 05:23:58;;;;;;;11.03;5.70;;;4.50;99.90;;;;;;5158841;27;20179;-67
2022/01/02 05:26:24;;;;;;;11.37;5.90;;;4.50;99.90;;;;;;5158330;27;20161;-66
2022/01/02 05:28:51;;;;;;;13.70;6.20;;;4.50;99.90;;;;;;5159685;27;20436;-67
2022/01/02 05:31:18;;;;;;;12.37;6.57;;;4.50;99.90;;;;;;5142207;27;20152;-67
2022/01/02 05:33:45;;;;;;;12.27;5.97;;;4.60;99.90;;;;;;5160509;27;20134;-67
2022/01/02 05:36:12;;;;;;;11.60;6.10;;;4.50;99.90;;;;;;5142142;27;20167;-67
2022/01/02 05:38:39;;;;;;;11.30;6.47;;;4.60;99.90;;;;;;5158642;27;20128;-67
2022/01/02 05:41:06;;;;;;;14.53;6.60;;;4.70;99.90;;;;;;5159398;27;20174;-67
2022/01/02 05:43:33;;;;;;;11.37;6.33;;;4.70;99.90;;;;;;5139683;27;20156;-67
2022/01/02 05:46:05;;;;;;;14.33;6.87;;;4.70;99.90;;;;;;5158859;27;20149;-67
2022/01/02 05:48:33;;;;;;;12.10;6.50;;;4.70;99.90;;;;;;5142303;27;20132;-67
2022/01/02 05:51:01;;;;;;;12.80;6.93;;;4.70;99.90;;;;;;5158449;27;20149;-67
2022/01/02 05:53:31;;;;;;;10.80;6.73;;;4.70;99.90;;;;;;5157462;27;20172;-67
2022/01/02 05:55:57;;;;;;;12.93;6.83;;;4.70;99.90;;;;;;5142013;27;20455;-67
2022/01/02 05:58:24;;;;;;;15.77;7.20;;;4.70;99.90;;;;;;5140726;27;20263;-67
2022/01/02 06:00:51;;;;;;;14.17;6.83;;;4.70;99.90;;;;;;5141324;27;20177;-66
2022/01/02 06:03:18;;;;;;;14.47;7.63;;;4.70;99.90;;;;;;5156815;27;20156;-67
2022/01/02 06:05:46;;;;;;;13.60;7.43;;;4.70;99.90;;;;;;5159290;27;20108;-67
2022/01/02 06:08:13;;;;;;;13.47;7.37;;;4.70;99.90;;;;;;5158537;27;20205;-66
2022/01/02 06:10:40;;;;;;;15.83;7.73;;;4.70;99.90;;;;;;5140652;27;20152;-66
2022/01/02 06:13:07;;;;;;;15.43;7.97;;;4.70;99.90;;;;;;5158013;27;20148;-67
2022/01/02 06:15:34;;;;;;;15.10;8.03;;;4.70;99.90;;;;;;5157802;27;20184;-67
2022/01/02 06:18:01;;;;;;;14.43;7.97;;;4.70;99.90;;;;;;5139787;27;20149;-67
2022/01/02 06:20:28;;;;;;;17.07;7.73;;;4.70;99.90;;;;;;5140479;27;20210;-67
2022/01/02 06:22:55;;;;;;;17.77;8.20;;;4.70;99.90;;;;;;5158669;27;20120;-67
2022/01/02 06:25:22;;;;;;;14.50;8.20;;;4.70;99.90;;;;;;5140447;27;20165;-66
2022/01/02 06:27:49;;;;;;;19.33;9.20;;;4.70;99.90;;;;;;5159600;27;20152;-66
2022/01/02 06:30:17;;;;;;;18.83;9.03;;;4.70;99.90;;;;;;5158791;27;20151;-67
2022/01/02 06:32:44;;;;;;;20.47;8.60;;;4.70;99.90;;;;;;5158949;27;20155;-67
2022/01/02 06:35:12;;;;;;;17.57;8.53;;;4.70;99.90;;;;;;5139841;27;20148;-67
2022/01/02 06:37:39;;;;;;;18.97;8.80;;;4.70;99.90;;;;;;5141024;27;20181;-67
2022/01/02 06:40:06;;;;;;;17.13;9.13;;;4.70;99.90;;;;;;5158781;27;20124;-67
2022/01/02 06:42:33;;;;;;;20.73;9.20;;;4.70;99.90;;;;;;5139965;27;20163;-67
2022/01/02 06:45:00;;;;;;;16.17;8.60;;;4.70;99.90;;;;;;5157621;27;20191;-67
2022/01/02 06:47:27;;;;;;;19.87;9.70;;;4.80;99.90;;;;;;5141220;27;20196;-67
2022/01/02 06:49:54;;;;;;;20.97;9.50;;;4.80;99.90;;;;;;5140780;27;20151;-67
2022/01/02 06:52:21;;;;;;;20.23;9.80;;;4.80;99.90;;;;;;5159877;27;20146;-67
2022/01/02 06:54:52;;;;;;;19.57;9.50;;;4.80;99.90;;;;;;5157560;27;20190;-67
2022/01/02 06:57:23;;;;;;;24.57;10.57;;;4.70;99.90;;;;;;5140311;27;20146;-67
2022/01/02 06:59:50;;;;;;;22.40;10.13;;;4.80;99.90;;;;;;5141961;27;20147;-67
2022/01/02 07:02:18;;;;;;;21.77;10.33;;;4.80;99.90;;;;;;5157939;27;20149;-67
2022/01/02 07:04:45;;;;;;;23.23;10.27;;;4.80;99.90;;;;;;5140468;27;20176;-67
2022/01/02 07:07:12;;;;;;;24.47;10.60;;;4.80;99.90;;;;;;5158678;27;20123;-67
2022/01/02 07:09:39;;;;;;;23.77;10.43;;;4.80;99.90;;;;;;5159828;27;20149;-67
2022/01/02 07:12:06;;;;;;;22.63;11.37;;;4.90;99.90;;;;;;5141328;27;20470;-67
2022/01/02 07:14:33;;;;;;;24.30;10.87;;;4.90;99.90;;;;;;5140811;27;20159;-67
2022/01/02 07:17:00;;;;;;;24.37;10.40;;;4.90;99.90;;;;;;5139849;27;20163;-67
2022/01/02 07:19:27;;;;;;;24.23;11.77;;;4.90;99.90;;;;;;5142464;27;20150;-67
2022/01/02 07:21:57;;;;;;;24.17;11.17;;;4.90;99.90;;;;;;5140612;27;20148;-67
2022/01/02 07:24:25;;;;;;;31.47;12.03;;;4.90;99.90;;;;;;5157066;27;20159;-67
2022/01/02 07:26:52;;;;;;;27.17;11.57;;;5.00;99.90;;;;;;5142133;27;20155;-67
2022/01/02 07:29:20;;;;;;;29.93;12.10;;;5.00;99.90;;;;;;5139577;27;20155;-67
2022/01/02 07:31:47;;;;;;;24.60;12.67;;;5.00;99.90;;;;;;5141876;27;20176;-67
2022/01/02 07:34:14;;;;;;;30.20;11.90;;;4.90;99.90;;;;;;5157538;27;20157;-67
2022/01/02 07:36:44;;;;;;;29.03;12.57;;;5.00;99.90;;;;;;5140738;27;20203;-67
2022/01/02 07:39:15;;;;;;;28.70;12.03;;;5.00;99.90;;;;;;5157269;27;20145;-67
2022/01/02 07:41:42;;;;;;;27.83;11.97;;;5.10;99.90;;;;;;5140999;27;20154;-67
2022/01/02 07:44:09;;;;;;;32.90;13.47;;;5.10;99.90;;;;;;5157374;27;20460;-67
2022/01/02 07:46:36;;;;;;;31.40;13.33;;;5.10;99.90;;;;;;5139755;27;20160;-67
2022/01/02 07:49:03;;;;;;;31.60;12.97;;;5.10;99.90;;;;;;5159486;27;20368;-67
2022/01/02 07:51:31;;;;;;;33.80;13.20;;;5.10;99.90;;;;;;5140946;27;20191;-67
2022/01/02 07:54:00;;;;;;;32.20;13.17;;;5.20;99.90;;;;;;5140022;27;20159;-67
2022/01/02 07:56:27;;;;;;;32.00;12.70;;;5.20;99.90;;;;;;5139161;27;20144;-67
2022/01/02 07:58:57;;;;;;;36.43;14.10;;;5.30;99.90;;;;;;5139485;27;20554;-67
2022/01/02 08:01:24;;;;;;;31.43;14.50;;;5.30;99.90;;;;;;5159710;27;20127;-67
2022/01/02 08:03:52;;;;;;;32.37;13.83;;;5.30;99.90;;;;;;5140164;27;20136;-67
2022/01/02 08:06:19;;;;;;;34.97;14.40;;;5.40;99.90;;;;;;5141969;27;20175;-67
2022/01/02 08:08:46;;;;;;;34.93;14.37;;;5.40;99.90;;;;;;5139785;27;20400;-67
2022/01/02 08:11:17;;;;;;;33.53;14.10;;;5.50;99.90;;;;;;5157425;27;20356;-67
2022/01/02 08:14:04;;;;;;;33.27;14.20;;;5.50;99.90;;;;;;5156951;27;20183;-67
2022/01/02 08:16:31;;;;;;;34.30;14.10;;;5.50;99.90;;;;;;5157743;27;20187;-67
2022/01/02 08:18:58;;;;;;;32.27;14.37;;;5.50;99.90;;;;;;5140577;27;20147;-67
2022/01/02 08:21:25;;;;;;;35.20;15.00;;;5.60;99.90;;;;;;5156882;27;20176;-67
2022/01/02 08:23:52;;;;;;;40.27;15.17;;;5.60;99.90;;;;;;5141044;27;20173;-67
2022/01/02 08:26:20;;;;;;;36.43;15.10;;;5.60;99.90;;;;;;5140750;27;20421;-67
2022/01/02 08:28:47;;;;;;;33.17;14.00;;;5.70;99.90;;;;;;5155970;27;20495;-67
2022/01/02 08:31:14;;;;;;;41.60;15.93;;;5.80;99.90;;;;;;5141185;27;20152;-67
2022/01/02 08:33:41;;;;;;;36.47;15.27;;;5.90;99.90;;;;;;5139644;27;20141;-67
2022/01/02 08:36:08;;;;;;;34.47;15.33;;;5.90;99.90;;;;;;5156224;27;20144;-67
2022/01/02 08:38:36;;;;;;;36.10;15.17;;;6.00;99.90;;;;;;5158748;27;20126;-67
2022/01/02 08:41:03;;;;;;;36.83;14.97;;;6.00;99.90;;;;;;5139846;27;20156;-67
2022/01/02 08:43:30;;;;;;;37.40;15.60;;;6.00;99.90;;;;;;5158184;27;20162;-67
2022/01/02 08:45:57;;;;;;;38.03;15.37;;;6.10;99.90;;;;;;5156390;27;20150;-67
2022/01/02 08:48:25;;;;;;;41.63;15.80;;;6.20;99.90;;;;;;5141172;27;20142;-67
2022/01/02 08:50:51;;;;;;;38.10;15.73;;;6.20;99.90;;;;;;5157508;27;20472;-67
2022/01/02 08:53:18;;;;;;;35.53;15.13;;;6.30;99.90;;;;;;5138493;27;20150;-67
2022/01/02 08:55:45;;;;;;;32.87;14.67;;;6.40;99.90;;;;;;5158688;27;20137;-67
2022/01/02 08:58:12;;;;;;;37.27;15.13;;;6.40;99.90;;;;;;5158209;27;20121;-67
2022/01/02 09:00:39;;;;;;;37.20;15.13;;;6.50;99.90;;;;;;5140012;27;20174;-67
2022/01/02 09:03:06;;;;;;;44.07;15.40;;;6.50;99.90;;;;;;5139140;27;20184;-67
2022/01/02 09:05:33;;;;;;;36.07;15.00;;;6.50;99.90;;;;;;5141371;27;20189;-67
2022/01/02 09:08:00;;;;;;;39.40;15.97;;;6.50;99.90;;;;;;5141387;27;20153;-67
2022/01/02 09:10:27;;;;;;;40.17;15.87;;;6.50;99.90;;;;;;5155994;27;20163;-67
2022/01/02 09:12:54;;;;;;;38.93;14.73;;;6.60;99.90;;;;;;5140128;27;20157;-67
2022/01/02 09:15:21;;;;;;;40.90;16.23;;;6.60;99.90;;;;;;5141209;27;20199;-67
2022/01/02 09:17:48;;;;;;;44.87;17.07;;;6.60;99.90;;;;;;5141534;27;20179;-67
2022/01/02 09:20:17;;;;;;;41.93;15.27;;;6.60;99.90;;;;;;5139447;27;20151;-67
2022/01/02 09:22:44;;;;;;;40.30;16.07;;;6.60;99.90;;;;;;5138823;27;20148;-67
2022/01/02 09:25:11;;;;;;;38.43;15.40;;;6.60;99.90;;;;;;5155818;27;20188;-67
2022/01/02 09:27:39;;;;;;;40.83;16.60;;;6.70;99.90;;;;;;5138830;27;20149;-67
2022/01/02 09:30:07;;;;;;;40.73;15.97;;;6.80;99.90;;;;;;5140382;27;20161;-67
2022/01/02 09:32:34;;;;;;;44.07;16.33;;;6.80;99.90;;;;;;5139030;27;20154;-67
2022/01/02 09:35:06;;;;;;;38.83;15.63;;;6.90;99.90;;;;;;5139850;27;20495;-67
2022/01/02 09:37:36;;;;;;;43.77;16.03;;;6.90;99.90;;;;;;5138757;27;20180;-67
2022/01/02 09:40:05;;;;;;;45.37;16.73;;;6.90;99.90;;;;;;5114863;28;20378;-67
2022/01/02 09:42:33;;;;;;;43.37;16.10;;;6.90;99.90;;;;;;5114899;28;20271;-67
2022/01/02 09:45:02;;;;;;;42.50;16.77;;;7.00;99.90;;;;;;5100193;28;20171;-67
2022/01/02 09:47:31;;;;;;;43.70;16.70;;;7.00;99.90;;;;;;5115633;28;20186;-67
2022/01/02 09:50:07;;;;;;;46.30;17.70;;;7.00;99.90;;;;;;5116883;28;20146;-66
2022/01/02 09:52:34;;;;;;;43.93;17.73;;;7.00;99.90;;;;;;5115994;28;20489;-67
2022/01/02 09:55:01;;;;;;;45.87;17.37;;;7.00;99.90;;;;;;5115429;28;20380;-67
2022/01/02 09:57:28;;;;;;;43.87;17.33;;;7.00;99.90;;;;;;5123781;27;20128;-67
2022/01/02 09:59:56;;;;;;;51.93;17.93;;;7.10;99.90;;;;;;5141661;27;20181;-67
2022/01/02 10:02:23;;;;;;;44.33;18.00;;;7.10;99.90;;;;;;5161005;27;20149;-67
2022/01/02 10:05:01;;;;;;;48.90;18.73;;;7.20;99.90;;;;;;5160621;27;20351;-67
2022/01/02 10:07:34;;;;;;;46.00;18.07;;;7.20;99.90;;;;;;5158526;27;20137;-67
2022/01/02 10:10:11;;;;;;;45.87;17.93;;;7.20;99.90;;;;;;5158966;27;20117;-67
2022/01/02 10:12:38;;;;;;;45.40;18.17;;;7.30;99.90;;;;;;5160901;27;20150;-67
2022/01/02 10:15:14;;;;;;;46.40;18.53;;;7.30;99.90;;;;;;5160542;27;20148;-67
2022/01/02 10:17:59;;;;;;;44.33;18.20;;;7.40;99.90;;;;;;5158050;27;20143;-67
2022/01/02 10:20:38;;;;;;;42.23;18.13;;;7.50;99.90;;;;;;5142028;27;20150;-67
2022/01/02 10:23:25;;;;;;;40.00;18.03;;;7.50;99.90;;;;;;5156513;27;20141;-67
2022/01/02 10:25:56;;;;;;;43.53;17.57;;;7.60;99.90;;;;;;5156682;27;20520;-68
2022/01/02 10:28:33;;;;;;;42.43;18.17;;;7.60;99.90;;;;;;5157555;27;20142;-67
2022/01/02 10:31:03;;;;;;;42.53;17.47;;;7.70;99.90;;;;;;5156745;27;20166;-67
2022/01/02 10:33:57;;;;;;;38.13;16.80;;;7.80;99.90;;;;;;5139721;27;20167;-67
2022/01/02 10:36:28;;;;;;;38.63;17.30;;;7.80;99.90;;;;;;5159115;27;20146;-68
2022/01/02 10:38:59;;;;;;;38.30;17.17;;;7.90;99.90;;;;;;5139454;27;20159;-67
2022/01/02 10:41:42;;;;;;;36.67;16.83;;;7.90;99.90;;;;;;5139693;27;20158;-67
2022/01/02 10:44:32;;;;;;;32.83;16.03;;;7.90;99.90;;;;;;5157341;27;20155;-67
2022/01/02 10:47:11;;;;;;;35.90;17.27;;;8.00;99.90;;;;;;5160682;27;20182;-67
2022/01/02 10:50:05;;;;;;;37.10;15.87;;;8.00;99.90;;;;;;5156690;27;20194;-67
2022/01/02 10:52:41;;;;;;;33.67;15.83;;;8.00;99.90;;;;;;5139869;27;20166;-67
2022/01/02 10:55:15;;;;;;;35.57;16.63;;;8.00;99.90;;;;;;5158371;27;20469;-67
2022/01/02 10:57:43;;;;;;;38.50;17.67;;;8.10;99.90;;;;;;5160852;27;20355;-67
2022/01/02 11:00:10;;;;;;;33.87;16.57;;;8.20;99.90;;;;;;5139455;27;20183;-67
2022/01/02 11:02:39;;;;;;;32.23;15.83;;;8.20;99.90;;;;;;5158575;27;20174;-67
2022/01/02 11:05:11;;;;;;;32.67;16.37;;;8.20;99.90;;;;;;5139972;27;20216;-67
2022/01/02 11:07:43;;;;;;;36.80;16.23;;;8.30;99.90;;;;;;5157027;27;20495;-67
2022/01/02 11:10:15;;;;;;;33.07;16.27;;;8.30;99.90;;;;;;5157545;27;20185;-67
2022/01/02 11:12:43;;;;;;;34.50;16.23;;;8.30;99.90;;;;;;5156519;27;20163;-67
2022/01/02 11:15:18;;;;;;;37.67;17.10;;;8.30;99.90;;;;;;5141152;27;20177;-67
2022/01/02 11:17:45;;;;;;;34.77;16.30;;;8.30;99.90;;;;;;5141187;27;20143;-67
2022/01/02 11:20:15;;;;;;;32.53;16.37;;;8.40;99.90;;;;;;5158336;27;20266;-67
2022/01/02 11:22:52;;;;;;;34.40;16.37;;;8.40;99.90;;;;;;5141043;27;20147;-67
2022/01/02 11:25:27;;;;;;;37.20;16.57;;;8.40;99.90;;;;;;5140214;27;20174;-67
2022/01/02 11:28:02;;;;;;;37.70;16.73;;;8.50;99.90;;;;;;5159522;27;20340;-67
2022/01/02 11:30:32;;;;;;;30.27;16.10;;;8.50;99.90;;;;;;5139548;27;20153;-67
2022/01/02 11:33:15;;;;;;;33.40;16.00;;;8.60;99.90;;;;;;5141453;27;20292;-67
2022/01/02 11:35:44;;;;;;;37.03;17.23;;;8.60;99.90;;;;;;5141851;27;20211;-67
2022/01/02 11:38:12;;;;;;;36.77;17.43;;;8.70;99.90;;;;;;5141611;27;20170;-67
2022/01/02 11:40:54;;;;;;;33.23;16.57;;;8.70;99.90;;;;;;5158568;27;20122;-67
2022/01/02 11:43:36;;;;;;;34.73;15.83;;;8.70;99.90;;;;;;5155949;27;20161;-67
2022/01/02 11:46:47;;;;;;;34.40;16.53;;;8.70;99.90;;;;;;5139184;27;20171;-67
2022/01/02 11:49:18;;;;;;;32.50;16.33;;;8.70;99.90;;;;;;5057233;28;20398;-67
2022/01/02 11:51:50;;;;;;;37.63;17.57;;;8.80;99.90;;;;;;5074963;28;20331;-67
2022/01/02 11:54:31;;;;;;;36.73;17.33;;;8.80;99.90;;;;;;5076172;28;20430;-67
2022/01/02 11:57:01;;;;;;;35.00;16.80;;;8.80;99.90;;;;;;5074940;28;20145;-67
2022/01/02 11:59:43;;;;;;;39.27;16.57;;;8.90;99.90;;;;;;5074148;28;20166;-67
2022/01/02 12:02:13;;;;;;;34.10;16.70;;;8.90;99.90;;;;;;5074629;28;20382;-67
2022/01/02 12:04:59;;;;;;;36.33;17.13;;;8.90;99.90;;;;;;5073765;28;20221;-67
2022/01/02 12:07:37;;;;;;;34.40;16.87;;;8.90;99.90;;;;;;5075703;28;20149;-67
2022/01/02 12:10:16;;;;;;;33.43;16.07;;;8.90;99.90;;;;;;5075692;28;20156;-67
2022/01/02 12:13:20;;;;;;;36.57;16.90;;;9.00;99.90;;;;;;5075400;28;20495;-67
2022/01/02 12:15:47;;;;;;;35.03;15.90;;;9.00;99.90;;;;;;5075456;28;20598;-67
2022/01/02 12:18:28;;;;;;;33.80;16.57;;;9.00;99.90;;;;;;5073336;28;20165;-67
2022/01/02 12:20:56;;;;;;;34.53;15.83;;;9.00;99.90;;;;;;5072945;28;20145;-67
2022/01/02 12:23:29;;;;;;;36.80;16.93;;;9.00;99.90;;;;;;5124162;27;20133;-67
2022/01/02 12:26:11;;;;;;;33.07;15.97;;;9.00;99.90;;;;;;5140269;27;20162;-67
2022/01/02 12:28:44;;;;;;;34.27;16.40;;;9.00;99.90;;;;;;5158573;27;20175;-67
2022/01/02 12:31:14;;;;;;;33.63;16.47;;;9.10;99.90;;;;;;5138578;27;20414;-67
2022/01/02 12:33:42;;;;;;;34.20;15.00;;;9.10;99.90;;;;;;5140858;27;20156;-67
2022/01/02 12:36:14;;;;;;;36.43;15.43;;;9.10;99.90;;;;;;5158324;27;20139;-67
2022/01/02 12:39:00;;;;;;;33.60;16.77;;;9.10;99.90;;;;;;5156050;27;20195;-67
2022/01/02 12:41:31;;;;;;;34.63;15.50;;;9.10;99.90;;;;;;5139717;27;20142;-67
2022/01/02 12:44:10;;;;;;;32.17;15.67;;;9.20;99.90;;;;;;5156720;27;20148;-67
2022/01/02 12:46:47;;;;;;;33.03;15.13;;;9.20;99.90;;;;;;5157347;27;20364;-67
2022/01/02 12:49:28;;;;;;;31.10;13.87;;;9.20;99.90;;;;;;5138837;27;20147;-68
2022/01/02 12:52:01;;;;;;;30.20;14.67;;;9.30;99.90;;;;;;5139261;27;20389;-67
2022/01/02 12:54:31;;;;;;;28.83;14.30;;;9.30;99.90;;;;;;5157561;27;20159;-67
2022/01/02 12:57:00;;;;;;;27.13;13.83;;;9.30;99.90;;;;;;5158181;27;20294;-67
2022/01/02 12:59:28;;;;;;;30.00;13.97;;;9.40;99.90;;;;;;5157189;27;20143;-67
2022/01/02 13:02:01;;;;;;;29.47;13.57;;;9.40;99.90;;;;;;5138773;27;20140;-67
2022/01/02 13:04:29;;;;;;;29.27;14.00;;;9.40;99.90;;;;;;5139159;27;20202;-67
2022/01/02 13:07:00;;;;;;;27.00;13.47;;;9.40;99.90;;;;;;5157773;27;20148;-67
2022/01/02 13:09:32;;;;;;;27.63;12.70;;;9.50;99.90;;;;;;5156448;27;20159;-67
2022/01/02 13:12:02;;;;;;;30.50;12.70;;;9.50;99.90;;;;;;5157730;27;20371;-67